Roma, Italia

03:25 AM CEST del 25 Ottobre 2014 (GMT +0200)
Near Vatican City | Change Station
CLOSE
Current Station
Stazione meteo personale
Location: Roma, LAZIO
Altitudine: 135 ft
Stazioni meteo nelle vicinanze

Alt. 135 ft 41.90 °N, 12.44 °E | Updated 1 minute ago

Clear
Sereno
57.4 °F
Sembra 57.4 °F
N
0.9
Vento Variabile Vento da NE
Gusts 2.7 mph

Oggi
Massima -- | Minima -- °F
--% Possibilità di precip.
Ieri
Massima -- | Minima -- °F
Precip. -- in
7:33 AM 6:13 PM
Luna nuova, 1% visible
Pressione 29.98 in
Visibilità -9999.0 miglia
Nuvole
Punto di rugiada 40 °F
Umidità 53%
Piovosità 0.00 in
Spessore del manto nevoso Non disponibile.
Raggi UV Non disponibile.
Polline Non disponibile.
Qualità dell'aria Non disponibile.
Flu Activity Non disponibile.
METAR LIRA 250045Z 06004KT CAVOK 10/06 Q1015

More Conditions Fewer Conditions

Pressione 29.98 in
Visibilità -9999.0 miglia
Nuvole
Punto di rugiada 40 °F
Umidità 53%
Piovosità 0.00 in
Spessore del manto nevoso Non disponibile.
Raggi UV Non disponibile.
Polline Non disponibile.
Qualità dell'aria Non disponibile.
Flu Activity Non disponibile.
METAR LIRA 250045Z 06004KT CAVOK 10/06 Q1015

More Conditions Fewer Conditions

10-Day Weather Forecast

Almanac

Astronomia

Oct. 25, 2014 Alba Tramonto
Ora attuale 07:33 CEST 18:13 CEST
Crepuscolo civile 07:05 CEST 18:42 CEST
Crepuscolo nautico 06:32 CEST 19:15 CEST
Crepuscolo astronomico 06:00 CEST 19:47 CEST
Luna 08:56 CEST 19:23 CEST
Estensione della luce visibile 11h 37m
Lunghezza del giorno
10h 40m
Tomorrow will be 2m 36s shorter.
Luna nuova, 1% of the Moon is Illuminated
Ott 24
Luna nuova
Ott 30
Primo quarto
Nov 6
Luna piena
Nov 14
Ultimo quarto
Nov 22
Nuovo

Minime e massime di ieri

Massime Regione Minime Regione

Community

WunderPhotos

Upload Photos

1,764,741 foto caricate!

WunderBlogs® & News

Nearby

Qualità dell'aria

Not available.

Profondità neve

Not available.

Attività sismica

Città  Distanza Mag. Data & Ora
Non sono state riportate attività sismiche nelle vicinanze.
Minimo Magnitudo Mostrato è 2.5.

Temperature delle acque costiere

Località Temperatura
Nessun dato dalle stazioni

Stazioni meteo nelle vicinanze